sensor_id;sensor_type;location;lat;lon;timestamp;P1;durP1;ratioP1;P2;durP2;ratioP2
23720;SDS011;42950;52.134;5.578;2023-03-26T00:01:20;31.05;;;6.43;;
23720;SDS011;42950;52.134;5.578;2023-03-26T00:03:48;21.95;;;5.47;;
23720;SDS011;42950;52.134;5.578;2023-03-26T00:06:18;33.85;;;7.35;;
23720;SDS011;42950;52.134;5.578;2023-03-26T00:08:49;30.10;;;6.60;;
23720;SDS011;42950;52.134;5.578;2023-03-26T00:11:16;24.83;;;5.88;;
23720;SDS011;42950;52.134;5.578;2023-03-26T00:13:43;26.67;;;6.60;;
23720;SDS011;42950;52.134;5.578;2023-03-26T00:16:10;28.13;;;6.53;;
23720;SDS011;42950;52.134;5.578;2023-03-26T00:18:38;18.27;;;5.40;;
23720;SDS011;42950;52.134;5.578;2023-03-26T00:21:05;33.83;;;6.95;;
23720;SDS011;42950;52.134;5.578;2023-03-26T00:23:32;27.73;;;5.32;;
23720;SDS011;42950;52.134;5.578;2023-03-26T00:25:59;28.83;;;5.70;;
23720;SDS011;42950;52.134;5.578;2023-03-26T00:28:29;18.67;;;4.90;;
23720;SDS011;42950;52.134;5.578;2023-03-26T00:30:58;26.27;;;6.05;;
23720;SDS011;42950;52.134;5.578;2023-03-26T00:33:25;17.45;;;4.57;;
23720;SDS011;42950;52.134;5.578;2023-03-26T00:35:53;19.23;;;4.70;;
23720;SDS011;42950;52.134;5.578;2023-03-26T00:38:21;23.90;;;5.15;;
23720;SDS011;42950;52.134;5.578;2023-03-26T00:40:49;17.58;;;4.32;;
23720;SDS011;42950;52.134;5.578;2023-03-26T00:43:19;18.15;;;4.53;;
23720;SDS011;42950;52.134;5.578;2023-03-26T00:45:50;15.73;;;4.20;;
23720;SDS011;42950;52.134;5.578;2023-03-26T00:48:18;20.67;;;4.47;;
23720;SDS011;42950;52.134;5.578;2023-03-26T00:50:45;21.83;;;4.82;;
23720;SDS011;42950;52.134;5.578;2023-03-26T00:53:12;19.33;;;4.18;;
23720;SDS011;42950;52.134;5.578;2023-03-26T00:55:39;21.23;;;4.35;;
23720;SDS011;42950;52.134;5.578;2023-03-26T00:58:11;19.20;;;4.20;;
23720;SDS011;42950;52.134;5.578;2023-03-26T01:00:43;18.55;;;3.92;;
23720;SDS011;42950;52.134;5.578;2023-03-26T01:03:13;21.65;;;3.92;;
23720;SDS011;42950;52.134;5.578;2023-03-26T01:05:49;20.45;;;4.20;;
23720;SDS011;42950;52.134;5.578;2023-03-26T01:08:23;18.42;;;3.83;;
23720;SDS011;42950;52.134;5.578;2023-03-26T01:10:53;24.60;;;4.85;;
23720;SDS011;42950;52.134;5.578;2023-03-26T01:13:27;24.17;;;4.70;;
23720;SDS011;42950;52.134;5.578;2023-03-26T01:15:59;25.27;;;4.25;;
23720;SDS011;42950;52.134;5.578;2023-03-26T01:18:27;22.13;;;4.22;;
23720;SDS011;42950;52.134;5.578;2023-03-26T01:20:59;19.65;;;4.15;;
23720;SDS011;42950;52.134;5.578;2023-03-26T01:23:34;19.60;;;4.22;;
23720;SDS011;42950;52.134;5.578;2023-03-26T01:26:11;22.35;;;4.30;;
23720;SDS011;42950;52.134;5.578;2023-03-26T01:28:50;21.33;;;4.00;;
23720;SDS011;42950;52.134;5.578;2023-03-26T01:33:55;21.55;;;4.50;;
23720;SDS011;42950;52.134;5.578;2023-03-26T01:36:32;21.40;;;3.88;;
23720;SDS011;42950;52.134;5.578;2023-03-26T01:39:08;16.33;;;3.42;;
23720;SDS011;42950;52.134;5.578;2023-03-26T01:42:01;24.05;;;5.43;;
23720;SDS011;42950;52.134;5.578;2023-03-26T01:47:40;13.55;;;3.60;;
23720;SDS011;42950;52.134;5.578;2023-03-26T01:50:08;22.58;;;5.20;;
23720;SDS011;42950;52.134;5.578;2023-03-26T01:52:35;17.40;;;4.07;;
23720;SDS011;42950;52.134;5.578;2023-03-26T01:55:01;20.38;;;4.82;;
23720;SDS011;42950;52.134;5.578;2023-03-26T01:57:35;18.20;;;3.95;;
23720;SDS011;42950;52.134;5.578;2023-03-26T02:06:09;25.65;;;5.47;;
23720;SDS011;42950;52.134;5.578;2023-03-26T02:08:58;19.42;;;4.45;;
23720;SDS011;42950;52.134;5.578;2023-03-26T02:11:28;15.30;;;4.05;;
23720;SDS011;42950;52.134;5.578;2023-03-26T02:13:54;21.13;;;4.45;;
23720;SDS011;42950;52.134;5.578;2023-03-26T02:16:20;16.20;;;3.78;;
23720;SDS011;42950;52.134;5.578;2023-03-26T02:18:47;19.02;;;4.00;;
23720;SDS011;42950;52.134;5.578;2023-03-26T02:21:16;29.48;;;4.88;;
23720;SDS011;42950;52.134;5.578;2023-03-26T02:23:46;17.48;;;4.45;;
23720;SDS011;42950;52.134;5.578;2023-03-26T02:26:22;22.00;;;4.80;;
23720;SDS011;42950;52.134;5.578;2023-03-26T02:28:48;13.45;;;3.97;;
23720;SDS011;42950;52.134;5.578;2023-03-26T02:31:14;15.80;;;4.13;;
23720;SDS011;42950;52.134;5.578;2023-03-26T02:33:42;13.73;;;4.03;;
23720;SDS011;42950;52.134;5.578;2023-03-26T02:36:09;18.83;;;4.80;;
23720;SDS011;42950;52.134;5.578;2023-03-26T02:38:37;20.45;;;4.93;;
23720;SDS011;42950;52.134;5.578;2023-03-26T02:41:03;19.65;;;5.40;;
23720;SDS011;42950;52.134;5.578;2023-03-26T02:43:29;20.23;;;4.90;;
23720;SDS011;42950;52.134;5.578;2023-03-26T02:45:55;17.42;;;4.30;;
23720;SDS011;42950;52.134;5.578;2023-03-26T02:48:21;22.92;;;4.88;;
23720;SDS011;42950;52.134;5.578;2023-03-26T02:50:47;25.33;;;4.57;;
23720;SDS011;42950;52.134;5.578;2023-03-26T02:53:18;21.95;;;4.88;;
23720;SDS011;42950;52.134;5.578;2023-03-26T02:55:45;23.35;;;4.68;;
23720;SDS011;42950;52.134;5.578;2023-03-26T02:58:11;21.67;;;5.28;;
23720;SDS011;42950;52.134;5.578;2023-03-26T03:00:44;26.95;;;5.85;;
23720;SDS011;42950;52.134;5.578;2023-03-26T03:03:11;24.42;;;5.25;;
23720;SDS011;42950;52.134;5.578;2023-03-26T03:05:37;38.83;;;6.75;;
23720;SDS011;42950;52.134;5.578;2023-03-26T03:08:07;28.60;;;7.00;;
23720;SDS011;42950;52.134;5.578;2023-03-26T03:10:33;38.95;;;7.18;;
23720;SDS011;42950;52.134;5.578;2023-03-26T03:13:03;38.08;;;7.85;;
23720;SDS011;42950;52.134;5.578;2023-03-26T03:15:31;33.08;;;7.28;;
23720;SDS011;42950;52.134;5.578;2023-03-26T03:17:57;30.13;;;6.90;;
23720;SDS011;42950;52.134;5.578;2023-03-26T03:20:23;42.35;;;8.10;;
23720;SDS011;42950;52.134;5.578;2023-03-26T03:22:48;44.88;;;8.57;;
23720;SDS011;42950;52.134;5.578;2023-03-26T03:25:14;39.45;;;8.32;;
23720;SDS011;42950;52.134;5.578;2023-03-26T03:27:42;39.65;;;8.20;;
23720;SDS011;42950;52.134;5.578;2023-03-26T03:30:08;35.83;;;7.90;;
23720;SDS011;42950;52.134;5.578;2023-03-26T03:32:36;38.08;;;8.55;;
23720;SDS011;42950;52.134;5.578;2023-03-26T03:35:02;45.05;;;9.23;;
23720;SDS011;42950;52.134;5.578;2023-03-26T03:37:29;48.67;;;9.15;;
23720;SDS011;42950;52.134;5.578;2023-03-26T03:39:54;44.22;;;9.10;;
23720;SDS011;42950;52.134;5.578;2023-03-26T03:42:20;47.45;;;9.75;;
23720;SDS011;42950;52.134;5.578;2023-03-26T03:44:46;45.20;;;9.60;;
23720;SDS011;42950;52.134;5.578;2023-03-26T03:47:14;47.38;;;10.52;;
23720;SDS011;42950;52.134;5.578;2023-03-26T03:49:39;47.58;;;9.77;;
23720;SDS011;42950;52.134;5.578;2023-03-26T03:52:05;40.25;;;9.55;;
23720;SDS011;42950;52.134;5.578;2023-03-26T03:54:33;45.58;;;10.02;;
23720;SDS011;42950;52.134;5.578;2023-03-26T03:56:58;40.13;;;9.77;;
23720;SDS011;42950;52.134;5.578;2023-03-26T03:59:25;47.95;;;11.82;;
23720;SDS011;42950;52.134;5.578;2023-03-26T04:01:51;41.47;;;11.65;;
23720;SDS011;42950;52.134;5.578;2023-03-26T04:04:17;51.15;;;12.27;;
23720;SDS011;42950;52.134;5.578;2023-03-26T04:06:42;53.28;;;12.90;;
23720;SDS011;42950;52.134;5.578;2023-03-26T04:09:08;58.28;;;14.80;;
23720;SDS011;42950;52.134;5.578;2023-03-26T04:11:34;58.25;;;14.32;;
23720;SDS011;42950;52.134;5.578;2023-03-26T04:14:00;57.38;;;13.75;;
23720;SDS011;42950;52.134;5.578;2023-03-26T04:16:26;54.03;;;13.05;;
23720;SDS011;42950;52.134;5.578;2023-03-26T04:18:52;49.42;;;13.10;;
23720;SDS011;42950;52.134;5.578;2023-03-26T04:21:17;45.47;;;13.10;;
23720;SDS011;42950;52.134;5.578;2023-03-26T04:23:43;42.67;;;12.52;;
23720;SDS011;42950;52.134;5.578;2023-03-26T04:26:11;50.40;;;14.40;;
23720;SDS011;42950;52.134;5.578;2023-03-26T04:31:15;38.85;;;12.45;;
23720;SDS011;42950;52.134;5.578;2023-03-26T04:33:48;42.40;;;13.00;;
23720;SDS011;42950;52.134;5.578;2023-03-26T04:36:18;48.92;;;13.05;;
23720;SDS011;42950;52.134;5.578;2023-03-26T04:38:52;36.38;;;11.75;;
23720;SDS011;42950;52.134;5.578;2023-03-26T04:41:19;43.45;;;13.10;;
23720;SDS011;42950;52.134;5.578;2023-03-26T04:43:46;43.35;;;12.40;;
23720;SDS011;42950;52.134;5.578;2023-03-26T04:46:17;45.78;;;12.35;;
23720;SDS011;42950;52.134;5.578;2023-03-26T04:48:49;49.60;;;12.80;;
23720;SDS011;42950;52.134;5.578;2023-03-26T04:51:16;36.63;;;11.50;;
23720;SDS011;42950;52.134;5.578;2023-03-26T04:59:03;48.13;;;11.63;;
23720;SDS011;42950;52.134;5.578;2023-03-26T05:01:29;43.03;;;12.40;;
23720;SDS011;42950;52.134;5.578;2023-03-26T05:03:57;45.33;;;12.13;;
23720;SDS011;42950;52.134;5.578;2023-03-26T05:06:23;39.38;;;11.65;;
23720;SDS011;42950;52.134;5.578;2023-03-26T05:08:52;44.17;;;12.75;;
23720;SDS011;42950;52.134;5.578;2023-03-26T05:11:18;36.47;;;12.13;;
23720;SDS011;42950;52.134;5.578;2023-03-26T05:13:44;40.03;;;12.07;;
23720;SDS011;42950;52.134;5.578;2023-03-26T05:16:11;47.15;;;12.90;;
23720;SDS011;42950;52.134;5.578;2023-03-26T05:18:37;36.88;;;11.57;;
23720;SDS011;42950;52.134;5.578;2023-03-26T05:21:03;42.17;;;12.50;;
23720;SDS011;42950;52.134;5.578;2023-03-26T05:23:29;44.22;;;12.40;;
23720;SDS011;42950;52.134;5.578;2023-03-26T05:25:55;40.20;;;11.75;;
23720;SDS011;42950;52.134;5.578;2023-03-26T05:28:21;45.72;;;13.63;;
23720;SDS011;42950;52.134;5.578;2023-03-26T05:30:49;41.60;;;12.15;;
23720;SDS011;42950;52.134;5.578;2023-03-26T05:33:19;41.05;;;12.50;;
23720;SDS011;42950;52.134;5.578;2023-03-26T05:35:46;47.13;;;13.45;;
23720;SDS011;42950;52.134;5.578;2023-03-26T05:38:13;39.63;;;12.88;;
23720;SDS011;42950;52.134;5.578;2023-03-26T05:40:39;44.63;;;13.43;;
23720;SDS011;42950;52.134;5.578;2023-03-26T05:43:05;44.10;;;12.10;;
23720;SDS011;42950;52.134;5.578;2023-03-26T05:45:30;48.25;;;12.30;;
23720;SDS011;42950;52.134;5.578;2023-03-26T05:47:56;44.88;;;13.43;;
23720;SDS011;42950;52.134;5.578;2023-03-26T05:50:21;48.90;;;12.82;;
23720;SDS011;42950;52.134;5.578;2023-03-26T05:52:49;44.40;;;12.70;;
23720;SDS011;42950;52.134;5.578;2023-03-26T05:55:15;40.03;;;12.70;;
23720;SDS011;42950;52.134;5.578;2023-03-26T05:57:43;40.45;;;12.70;;
23720;SDS011;42950;52.134;5.578;2023-03-26T06:00:09;45.90;;;12.82;;
23720;SDS011;42950;52.134;5.578;2023-03-26T06:02:37;44.15;;;12.60;;
23720;SDS011;42950;52.134;5.578;2023-03-26T06:05:03;42.38;;;12.98;;
23720;SDS011;42950;52.134;5.578;2023-03-26T06:07:29;47.28;;;12.85;;
23720;SDS011;42950;52.134;5.578;2023-03-26T06:09:55;47.67;;;11.43;;
23720;SDS011;42950;52.134;5.578;2023-03-26T06:12:21;47.90;;;11.20;;
23720;SDS011;42950;52.134;5.578;2023-03-26T06:14:47;45.42;;;11.88;;
23720;SDS011;42950;52.134;5.578;2023-03-26T06:17:12;39.10;;;11.48;;
23720;SDS011;42950;52.134;5.578;2023-03-26T06:19:41;38.75;;;12.55;;
23720;SDS011;42950;52.134;5.578;2023-03-26T06:22:07;44.85;;;13.50;;
23720;SDS011;42950;52.134;5.578;2023-03-26T06:24:34;36.33;;;13.50;;
23720;SDS011;42950;52.134;5.578;2023-03-26T06:27:00;36.55;;;13.73;;
23720;SDS011;42950;52.134;5.578;2023-03-26T06:29:25;53.13;;;14.07;;
23720;SDS011;42950;52.134;5.578;2023-03-26T06:31:51;33.75;;;12.23;;
23720;SDS011;42950;52.134;5.578;2023-03-26T06:34:17;42.17;;;12.13;;
23720;SDS011;42950;52.134;5.578;2023-03-26T06:36:42;41.92;;;12.48;;
23720;SDS011;42950;52.134;5.578;2023-03-26T06:39:08;33.30;;;12.20;;
23720;SDS011;42950;52.134;5.578;2023-03-26T06:41:34;48.90;;;12.43;;
23720;SDS011;42950;52.134;5.578;2023-03-26T06:44:00;41.33;;;12.52;;
23720;SDS011;42950;52.134;5.578;2023-03-26T06:46:26;38.85;;;12.00;;
23720;SDS011;42950;52.134;5.578;2023-03-26T06:48:51;42.38;;;12.57;;
23720;SDS011;42950;52.134;5.578;2023-03-26T06:51:17;45.63;;;12.50;;
23720;SDS011;42950;52.134;5.578;2023-03-26T06:53:45;45.88;;;12.20;;
23720;SDS011;42950;52.134;5.578;2023-03-26T06:56:11;35.17;;;11.07;;
23720;SDS011;42950;52.134;5.578;2023-03-26T06:58:37;42.60;;;11.65;;
23720;SDS011;42950;52.134;5.578;2023-03-26T07:01:02;42.10;;;12.48;;
23720;SDS011;42950;52.134;5.578;2023-03-26T07:03:28;43.42;;;12.80;;
23720;SDS011;42950;52.134;5.578;2023-03-26T07:05:54;36.50;;;11.25;;
23720;SDS011;42950;52.134;5.578;2023-03-26T07:08:20;40.67;;;12.45;;
23720;SDS011;42950;52.134;5.578;2023-03-26T07:10:45;36.05;;;11.32;;
23720;SDS011;42950;52.134;5.578;2023-03-26T07:13:11;39.97;;;11.70;;
23720;SDS011;42950;52.134;5.578;2023-03-26T07:15:36;51.88;;;12.10;;
23720;SDS011;42950;52.134;5.578;2023-03-26T07:18:02;44.17;;;11.60;;
23720;SDS011;42950;52.134;5.578;2023-03-26T07:20:28;47.03;;;11.32;;
23720;SDS011;42950;52.134;5.578;2023-03-26T07:22:54;44.20;;;12.80;;
23720;SDS011;42950;52.134;5.578;2023-03-26T07:25:20;44.95;;;11.40;;
23720;SDS011;42950;52.134;5.578;2023-03-26T07:28:04;41.55;;;12.60;;
23720;SDS011;42950;52.134;5.578;2023-03-26T07:30:41;37.67;;;12.50;;
23720;SDS011;42950;52.134;5.578;2023-03-26T07:33:13;41.38;;;13.52;;
23720;SDS011;42950;52.134;5.578;2023-03-26T07:44:23;42.60;;;15.20;;
23720;SDS011;42950;52.134;5.578;2023-03-26T07:46:54;45.70;;;14.40;;
23720;SDS011;42950;52.134;5.578;2023-03-26T07:49:20;36.38;;;13.35;;
23720;SDS011;42950;52.134;5.578;2023-03-26T07:51:46;33.25;;;12.02;;
23720;SDS011;42950;52.134;5.578;2023-03-26T07:54:12;42.22;;;12.75;;
23720;SDS011;42950;52.134;5.578;2023-03-26T07:56:45;44.65;;;14.07;;
23720;SDS011;42950;52.134;5.578;2023-03-26T07:59:30;40.40;;;13.68;;
23720;SDS011;42950;52.134;5.578;2023-03-26T08:18:59;38.95;;;14.10;;
23720;SDS011;42950;52.134;5.578;2023-03-26T08:21:52;39.90;;;12.30;;
23720;SDS011;42950;52.134;5.578;2023-03-26T08:24:50;44.47;;;13.05;;
23720;SDS011;42950;52.134;5.578;2023-03-26T08:27:27;42.53;;;14.32;;
23720;SDS011;42950;52.134;5.578;2023-03-26T08:30:20;35.92;;;14.10;;
23720;SDS011;42950;52.134;5.578;2023-03-26T08:32:56;32.67;;;14.30;;
23720;SDS011;42950;52.134;5.578;2023-03-26T08:35:37;39.42;;;15.18;;
23720;SDS011;42950;52.134;5.578;2023-03-26T08:38:13;41.17;;;15.57;;
23720;SDS011;42950;52.134;5.578;2023-03-26T09:12:26;51.17;;;17.45;;
23720;SDS011;42950;52.134;5.578;2023-03-26T09:15:26;44.95;;;18.38;;
23720;SDS011;42950;52.134;5.578;2023-03-26T09:41:07;38.08;;;15.43;;
23720;SDS011;42950;52.134;5.578;2023-03-26T09:47:15;37.28;;;14.43;;
23720;SDS011;42950;52.134;5.578;2023-03-26T09:52:58;45.63;;;15.82;;
23720;SDS011;42950;52.134;5.578;2023-03-26T09:56:11;39.90;;;14.70;;
23720;SDS011;42950;52.134;5.578;2023-03-26T09:58:26;38.92;;;14.85;;
23720;SDS011;42950;52.134;5.578;2023-03-26T10:01:07;36.90;;;14.60;;
23720;SDS011;42950;52.134;5.578;2023-03-26T10:06:21;30.95;;;13.68;;
23720;SDS011;42950;52.134;5.578;2023-03-26T10:14:26;24.92;;;11.68;;
23720;SDS011;42950;52.134;5.578;2023-03-26T10:17:02;23.58;;;11.38;;
23720;SDS011;42950;52.134;5.578;2023-03-26T10:25:33;21.38;;;9.50;;
23720;SDS011;42950;52.134;5.578;2023-03-26T10:30:42;19.83;;;8.77;;
23720;SDS011;42950;52.134;5.578;2023-03-26T10:33:27;21.05;;;8.38;;
23720;SDS011;42950;52.134;5.578;2023-03-26T10:41:42;22.35;;;9.48;;
23720;SDS011;42950;52.134;5.578;2023-03-26T10:50:18;22.65;;;9.20;;
23720;SDS011;42950;52.134;5.578;2023-03-26T10:53:11;21.17;;;8.77;;
23720;SDS011;42950;52.134;5.578;2023-03-26T10:56:11;25.55;;;8.77;;
23720;SDS011;42950;52.134;5.578;2023-03-26T10:58:40;24.23;;;8.27;;
23720;SDS011;42950;52.134;5.578;2023-03-26T11:01:41;23.73;;;8.15;;
23720;SDS011;42950;52.134;5.578;2023-03-26T11:15:18;26.80;;;7.95;;
23720;SDS011;42950;52.134;5.578;2023-03-26T11:20:45;19.30;;;6.70;;
23720;SDS011;42950;52.134;5.578;2023-03-26T11:23:33;21.20;;;5.95;;
23720;SDS011;42950;52.134;5.578;2023-03-26T11:26:23;23.70;;;5.75;;
23720;SDS011;42950;52.134;5.578;2023-03-26T11:28:54;20.05;;;6.13;;
23720;SDS011;42950;52.134;5.578;2023-03-26T11:32:36;30.65;;;6.90;;
23720;SDS011;42950;52.134;5.578;2023-03-26T11:37:30;21.85;;;5.03;;
23720;SDS011;42950;52.134;5.578;2023-03-26T11:39:59;23.55;;;5.53;;
23720;SDS011;42950;52.134;5.578;2023-03-26T11:42:30;19.95;;;5.45;;
23720;SDS011;42950;52.134;5.578;2023-03-26T11:45:00;20.00;;;5.22;;
23720;SDS011;42950;52.134;5.578;2023-03-26T11:47:37;15.77;;;4.35;;
23720;SDS011;42950;52.134;5.578;2023-03-26T11:50:09;25.05;;;4.95;;
23720;SDS011;42950;52.134;5.578;2023-03-26T11:52:42;15.82;;;4.28;;
23720;SDS011;42950;52.134;5.578;2023-03-26T11:55:10;21.52;;;4.80;;
23720;SDS011;42950;52.134;5.578;2023-03-26T11:57:37;16.33;;;4.28;;
23720;SDS011;42950;52.134;5.578;2023-03-26T12:00:10;17.95;;;4.20;;
23720;SDS011;42950;52.134;5.578;2023-03-26T12:02:45;19.17;;;4.93;;
23720;SDS011;42950;52.134;5.578;2023-03-26T12:07:44;13.80;;;3.85;;
23720;SDS011;42950;52.134;5.578;2023-03-26T12:10:20;14.25;;;3.97;;
23720;SDS011;42950;52.134;5.578;2023-03-26T12:12:48;29.75;;;5.18;;
23720;SDS011;42950;52.134;5.578;2023-03-26T12:15:18;23.83;;;4.70;;
23720;SDS011;42950;52.134;5.578;2023-03-26T12:17:46;16.70;;;4.95;;
23720;SDS011;42950;52.134;5.578;2023-03-26T12:22:50;20.33;;;4.55;;
23720;SDS011;42950;52.134;5.578;2023-03-26T12:27:44;17.33;;;3.83;;
23720;SDS011;42950;52.134;5.578;2023-03-26T12:30:18;16.75;;;4.30;;
23720;SDS011;42950;52.134;5.578;2023-03-26T12:32:44;18.13;;;4.15;;
23720;SDS011;42950;52.134;5.578;2023-03-26T12:35:14;16.75;;;4.25;;
23720;SDS011;42950;52.134;5.578;2023-03-26T12:37:45;17.27;;;4.13;;
23720;SDS011;42950;52.134;5.578;2023-03-26T12:40:30;17.05;;;3.45;;
23720;SDS011;42950;52.134;5.578;2023-03-26T12:43:03;16.13;;;3.53;;
23720;SDS011;42950;52.134;5.578;2023-03-26T12:45:44;14.77;;;3.50;;
23720;SDS011;42950;52.134;5.578;2023-03-26T12:48:14;12.38;;;2.92;;
23720;SDS011;42950;52.134;5.578;2023-03-26T12:53:24;17.08;;;3.00;;
23720;SDS011;42950;52.134;5.578;2023-03-26T12:59:04;11.43;;;2.72;;
23720;SDS011;42950;52.134;5.578;2023-03-26T13:07:24;19.15;;;3.28;;
23720;SDS011;42950;52.134;5.578;2023-03-26T13:10:11;15.48;;;2.88;;
23720;SDS011;42950;52.134;5.578;2023-03-26T13:12:53;21.55;;;3.72;;
23720;SDS011;42950;52.134;5.578;2023-03-26T13:15:46;15.98;;;3.20;;
23720;SDS011;42950;52.134;5.578;2023-03-26T13:37:41;15.38;;;2.83;;
23720;SDS011;42950;52.134;5.578;2023-03-26T13:48:16;12.02;;;2.60;;
23720;SDS011;42950;52.134;5.578;2023-03-26T13:50:53;16.08;;;3.75;;
23720;SDS011;42950;52.134;5.578;2023-03-26T13:54:01;13.90;;;3.20;;
23720;SDS011;42950;52.134;5.578;2023-03-26T13:56:41;14.02;;;3.53;;
23720;SDS011;42950;52.134;5.578;2023-03-26T13:59:16;13.85;;;2.90;;
23720;SDS011;42950;52.134;5.578;2023-03-26T14:01:53;14.38;;;2.55;;
23720;SDS011;42950;52.134;5.578;2023-03-26T14:04:40;15.40;;;2.70;;
23720;SDS011;42950;52.134;5.578;2023-03-26T14:07:13;13.00;;;2.80;;
23720;SDS011;42950;52.134;5.578;2023-03-26T14:09:50;12.40;;;2.13;;
23720;SDS011;42950;52.134;5.578;2023-03-26T14:32:35;15.63;;;3.22;;
23720;SDS011;42950;52.134;5.578;2023-03-26T14:35:32;13.68;;;2.70;;
23720;SDS011;42950;52.134;5.578;2023-03-26T14:55:03;10.23;;;2.10;;
23720;SDS011;42950;52.134;5.578;2023-03-26T15:00:33;15.75;;;2.67;;
23720;SDS011;42950;52.134;5.578;2023-03-26T15:34:07;13.30;;;2.33;;
23720;SDS011;42950;52.134;5.578;2023-03-26T15:36:41;11.73;;;2.50;;
23720;SDS011;42950;52.134;5.578;2023-03-26T15:44:57;14.48;;;2.55;;
23720;SDS011;42950;52.134;5.578;2023-03-26T15:50:25;18.23;;;3.13;;
23720;SDS011;42950;52.134;5.578;2023-03-26T16:04:07;7.78;;;2.40;;
23720;SDS011;42950;52.134;5.578;2023-03-26T16:09:14;13.60;;;2.50;;
23720;SDS011;42950;52.134;5.578;2023-03-26T16:11:58;14.95;;;2.55;;
23720;SDS011;42950;52.134;5.578;2023-03-26T16:15:11;12.73;;;2.17;;
23720;SDS011;42950;52.134;5.578;2023-03-26T16:18:14;10.05;;;2.90;;
23720;SDS011;42950;52.134;5.578;2023-03-26T16:26:45;15.73;;;2.70;;
23720;SDS011;42950;52.134;5.578;2023-03-26T16:29:25;15.85;;;2.55;;
23720;SDS011;42950;52.134;5.578;2023-03-26T16:35:08;14.88;;;2.65;;
23720;SDS011;42950;52.134;5.578;2023-03-26T16:40:25;11.93;;;2.53;;
23720;SDS011;42950;52.134;5.578;2023-03-26T16:45:38;13.52;;;2.53;;
23720;SDS011;42950;52.134;5.578;2023-03-26T16:48:18;11.38;;;2.10;;
23720;SDS011;42950;52.134;5.578;2023-03-26T16:58:55;12.63;;;2.80;;
23720;SDS011;42950;52.134;5.578;2023-03-26T17:04:38;13.90;;;2.55;;
23720;SDS011;42950;52.134;5.578;2023-03-26T17:20:43;10.85;;;2.53;;
23720;SDS011;42950;52.134;5.578;2023-03-26T17:23:36;11.20;;;2.80;;
23720;SDS011;42950;52.134;5.578;2023-03-26T17:29:12;11.73;;;2.40;;
23720;SDS011;42950;52.134;5.578;2023-03-26T17:44:37;12.65;;;2.63;;
23720;SDS011;42950;52.134;5.578;2023-03-26T17:47:25;12.90;;;2.35;;
23720;SDS011;42950;52.134;5.578;2023-03-26T17:49:54;11.23;;;2.05;;
23720;SDS011;42950;52.134;5.578;2023-03-26T17:52:37;7.57;;;2.75;;
23720;SDS011;42950;52.134;5.578;2023-03-26T17:55:19;9.20;;;2.28;;
23720;SDS011;42950;52.134;5.578;2023-03-26T17:57:57;8.05;;;2.13;;
23720;SDS011;42950;52.134;5.578;2023-03-26T18:03:13;13.73;;;3.05;;
23720;SDS011;42950;52.134;5.578;2023-03-26T18:05:44;10.02;;;2.60;;
23720;SDS011;42950;52.134;5.578;2023-03-26T18:16:23;8.82;;;2.10;;
23720;SDS011;42950;52.134;5.578;2023-03-26T18:19:09;12.32;;;2.28;;
23720;SDS011;42950;52.134;5.578;2023-03-26T18:21:46;11.32;;;2.20;;
23720;SDS011;42950;52.134;5.578;2023-03-26T18:24:21;31.33;;;21.30;;
23720;SDS011;42950;52.134;5.578;2023-03-26T18:26:55;23.90;;;20.33;;
23720;SDS011;42950;52.134;5.578;2023-03-26T18:29:26;15.23;;;8.60;;
23720;SDS011;42950;52.134;5.578;2023-03-26T18:34:29;16.30;;;3.90;;
23720;SDS011;42950;52.134;5.578;2023-03-26T18:37:17;10.95;;;3.30;;
23720;SDS011;42950;52.134;5.578;2023-03-26T18:39:59;11.02;;;2.30;;
23720;SDS011;42950;52.134;5.578;2023-03-26T18:42:35;13.40;;;2.97;;
23720;SDS011;42950;52.134;5.578;2023-03-26T18:45:23;18.10;;;3.22;;
23720;SDS011;42950;52.134;5.578;2023-03-26T18:47:53;9.10;;;2.65;;
23720;SDS011;42950;52.134;5.578;2023-03-26T18:50:24;23.40;;;6.03;;
23720;SDS011;42950;52.134;5.578;2023-03-26T18:52:55;11.82;;;2.75;;
23720;SDS011;42950;52.134;5.578;2023-03-26T18:55:25;14.20;;;2.65;;
23720;SDS011;42950;52.134;5.578;2023-03-26T18:57:55;13.73;;;2.80;;
23720;SDS011;42950;52.134;5.578;2023-03-26T19:00:22;13.38;;;2.60;;
23720;SDS011;42950;52.134;5.578;2023-03-26T19:03:04;11.43;;;2.22;;
23720;SDS011;42950;52.134;5.578;2023-03-26T19:05:31;11.43;;;2.50;;
23720;SDS011;42950;52.134;5.578;2023-03-26T19:07:59;13.55;;;2.67;;
23720;SDS011;42950;52.134;5.578;2023-03-26T19:10:27;11.20;;;3.15;;
23720;SDS011;42950;52.134;5.578;2023-03-26T19:12:55;13.15;;;3.10;;
23720;SDS011;42950;52.134;5.578;2023-03-26T19:15:24;14.70;;;3.00;;
23720;SDS011;42950;52.134;5.578;2023-03-26T19:18:04;12.65;;;2.33;;
23720;SDS011;42950;52.134;5.578;2023-03-26T19:20:38;17.80;;;3.33;;
23720;SDS011;42950;52.134;5.578;2023-03-26T19:23:11;15.50;;;3.45;;
23720;SDS011;42950;52.134;5.578;2023-03-26T19:25:40;10.18;;;3.13;;
23720;SDS011;42950;52.134;5.578;2023-03-26T19:28:15;13.95;;;2.83;;
23720;SDS011;42950;52.134;5.578;2023-03-26T19:30:44;17.70;;;3.45;;
23720;SDS011;42950;52.134;5.578;2023-03-26T19:35:42;19.48;;;5.78;;
23720;SDS011;42950;52.134;5.578;2023-03-26T19:38:35;12.82;;;2.72;;
23720;SDS011;42950;52.134;5.578;2023-03-26T19:41:02;14.98;;;3.95;;
23720;SDS011;42950;52.134;5.578;2023-03-26T19:43:28;12.82;;;3.63;;
23720;SDS011;42950;52.134;5.578;2023-03-26T19:45:54;11.93;;;2.45;;
23720;SDS011;42950;52.134;5.578;2023-03-26T19:48:23;13.35;;;3.25;;
23720;SDS011;42950;52.134;5.578;2023-03-26T19:51:03;15.65;;;2.67;;
23720;SDS011;42950;52.134;5.578;2023-03-26T19:53:33;11.02;;;2.38;;
23720;SDS011;42950;52.134;5.578;2023-03-26T19:58:32;12.63;;;4.65;;
23720;SDS011;42950;52.134;5.578;2023-03-26T20:00:59;16.27;;;2.90;;
23720;SDS011;42950;52.134;5.578;2023-03-26T20:03:34;16.27;;;3.50;;
23720;SDS011;42950;52.134;5.578;2023-03-26T20:06:04;14.15;;;2.30;;
23720;SDS011;42950;52.134;5.578;2023-03-26T20:08:32;10.43;;;1.60;;
23720;SDS011;42950;52.134;5.578;2023-03-26T20:10:58;10.98;;;1.95;;
23720;SDS011;42950;52.134;5.578;2023-03-26T20:13:24;12.07;;;2.80;;
23720;SDS011;42950;52.134;5.578;2023-03-26T20:15:57;13.32;;;2.80;;
23720;SDS011;42950;52.134;5.578;2023-03-26T20:18:31;12.63;;;2.72;;
23720;SDS011;42950;52.134;5.578;2023-03-26T20:20:57;12.43;;;2.50;;
23720;SDS011;42950;52.134;5.578;2023-03-26T20:23:23;17.05;;;2.67;;
23720;SDS011;42950;52.134;5.578;2023-03-26T20:25:51;10.63;;;2.22;;
23720;SDS011;42950;52.134;5.578;2023-03-26T20:28:19;8.70;;;2.13;;
23720;SDS011;42950;52.134;5.578;2023-03-26T20:30:48;9.88;;;1.60;;
23720;SDS011;42950;52.134;5.578;2023-03-26T20:33:19;14.02;;;2.10;;
23720;SDS011;42950;52.134;5.578;2023-03-26T20:35:49;9.82;;;1.95;;
23720;SDS011;42950;52.134;5.578;2023-03-26T20:38:15;9.38;;;1.85;;
23720;SDS011;42950;52.134;5.578;2023-03-26T20:40:41;14.98;;;2.53;;
23720;SDS011;42950;52.134;5.578;2023-03-26T20:43:09;10.30;;;2.42;;
23720;SDS011;42950;52.134;5.578;2023-03-26T20:45:36;14.55;;;2.13;;
23720;SDS011;42950;52.134;5.578;2023-03-26T20:48:02;12.55;;;2.22;;
23720;SDS011;42950;52.134;5.578;2023-03-26T20:50:28;14.73;;;2.47;;
23720;SDS011;42950;52.134;5.578;2023-03-26T20:52:54;10.43;;;2.10;;
23720;SDS011;42950;52.134;5.578;2023-03-26T20:55:20;8.30;;;1.60;;
23720;SDS011;42950;52.134;5.578;2023-03-26T20:57:48;13.77;;;2.17;;
23720;SDS011;42950;52.134;5.578;2023-03-26T21:00:15;10.27;;;2.00;;
23720;SDS011;42950;52.134;5.578;2023-03-26T21:02:46;14.20;;;1.70;;